createdAt,value
2022-11-17T00:00:23.623Z,6.20
2022-11-17T00:15:23.702Z,6.20
2022-11-17T00:30:23.605Z,6.18
2022-11-17T00:45:23.670Z,6.40
2022-11-17T01:00:26.685Z,6.30
2022-11-17T01:15:23.719Z,6.43
2022-11-17T01:30:23.758Z,6.35
2022-11-17T01:45:23.738Z,6.40
2022-11-17T02:00:26.909Z,6.57
2022-11-17T02:15:23.630Z,6.43
2022-11-17T02:30:23.625Z,6.50
2022-11-17T02:45:23.687Z,6.30
2022-11-17T03:00:23.876Z,6.12
2022-11-17T03:15:23.777Z,6.20
2022-11-17T03:30:24.079Z,6.43
2022-11-17T03:45:23.942Z,6.68
2022-11-17T04:00:30.777Z,6.65
2022-11-17T04:15:23.835Z,6.73
2022-11-17T04:30:23.930Z,6.87
2022-11-17T04:45:23.933Z,6.87
2022-11-17T05:00:32.356Z,6.73
2022-11-17T05:15:23.970Z,6.78
2022-11-17T05:30:27.222Z,6.78
2022-11-17T05:45:24.695Z,6.80
2022-11-17T06:00:35.702Z,6.73
2022-11-17T06:15:24.488Z,6.68
2022-11-17T06:30:24.126Z,6.60
2022-11-17T06:45:24.090Z,6.73
2022-11-17T07:00:41.355Z,6.50
2022-11-17T07:15:24.220Z,6.53
2022-11-17T07:30:24.375Z,6.85
2022-11-17T07:45:28.687Z,8.33
2022-11-17T08:00:32.200Z,8.88
2022-11-17T08:15:24.154Z,9.20
2022-11-17T08:30:33.225Z,9.47
2022-11-17T08:45:33.190Z,9.70
2022-11-17T09:00:36.566Z,9.85
2022-11-17T09:15:23.250Z,9.93
2022-11-17T09:30:23.479Z,10.12
2022-11-17T09:45:23.449Z,10.20
2022-11-17T10:00:28.053Z,10.15
2022-11-17T10:15:23.902Z,10.32
2022-11-17T10:30:23.404Z,10.80
2022-11-17T10:45:23.724Z,10.92
2022-11-17T11:00:32.412Z,11.00
2022-11-17T11:15:23.425Z,10.75
2022-11-17T11:30:27.353Z,10.73
2022-11-17T11:45:23.902Z,11.25
2022-11-17T12:00:40.161Z,11.80
2022-11-17T12:15:23.720Z,12.05
2022-11-17T12:30:23.783Z,12.40
2022-11-17T12:45:23.569Z,12.60
2022-11-17T13:00:35.148Z,12.62
2022-11-17T13:15:23.634Z,12.68
2022-11-17T13:30:24.630Z,12.95
2022-11-17T13:45:23.484Z,12.77
2022-11-17T14:00:33.637Z,12.70
2022-11-17T14:15:23.632Z,12.65
2022-11-17T14:30:24.911Z,12.55
2022-11-17T14:45:23.553Z,12.52
2022-11-17T15:00:29.023Z,12.40
2022-11-17T15:15:23.778Z,12.23
2022-11-17T15:30:25.708Z,11.78
2022-11-17T15:45:23.882Z,11.43
2022-11-17T16:00:33.638Z,10.50
2022-11-17T16:15:23.839Z,10.90
2022-11-17T16:30:24.033Z,10.67
2022-11-17T16:45:23.719Z,10.33
2022-11-17T17:00:26.363Z,10.17
2022-11-17T17:15:24.110Z,9.85
2022-11-17T17:30:24.015Z,9.77
2022-11-17T17:45:23.927Z,9.70
2022-11-17T18:00:28.049Z,9.85
2022-11-17T18:15:23.903Z,10.07
2022-11-17T18:30:29.437Z,9.95
2022-11-17T18:45:24.005Z,10.40
2022-11-17T19:00:30.856Z,10.65
2022-11-17T19:15:23.954Z,10.70
2022-11-17T19:30:24.083Z,10.67
2022-11-17T19:45:24.346Z,10.48
2022-11-17T20:00:24.946Z,10.50
2022-11-17T20:15:34.351Z,10.20
2022-11-17T20:30:34.970Z,10.23
2022-11-17T20:45:33.125Z,10.00
2022-11-17T21:00:36.490Z,10.05
2022-11-17T21:15:23.262Z,10.10
2022-11-17T21:30:25.533Z,9.98
2022-11-17T21:45:23.697Z,9.90
2022-11-17T22:00:39.300Z,9.75
2022-11-17T22:15:23.517Z,9.70
2022-11-17T22:30:23.636Z,9.67
2022-11-17T22:45:23.651Z,9.38
2022-11-17T23:00:51.497Z,10.50
2022-11-17T23:15:23.580Z,9.20
2022-11-17T23:30:23.781Z,9.30
2022-11-17T23:45:23.529Z,9.18
